Krabi Airport
VTSG : now visible

Aeroporto :











RITROVATECI SU...

 
LOGIN :

Iscrizione | Disclaimer

   EN    FR    IT 

 









Sommario :    VFR   VFR Marginale   IFR   IFR Intensivo   IFR Molto Intensivo
Visibilità : 
Base nubi : 
>= 8 km
>= 3000ft
5 / 8 km
1000 / 3000 ft
1500m / 5 km
500 / 1000 ft
800 / 1500m
200 / 500 ft
< 800m
< 200 ft
Simboli :   Temporali  Nebbia  Neve Forte  Precipitazioni Forti  Vento > 20 kt






- Altitudine del aeroporto : 82 ft
- Codice IATA : KBV


VTSG - Krabi

ULTIMO METAR :
  • 011100Z 21009KT 9999 SCT020 32/22 Q1007 NOSIG

METARs OBSOLETI :
  • 011000Z 21012KT 190V250 9999 BKN020 34/23 Q1006 NOSIG
  • 010900Z 22011KT 190V250 9999 BKN020 35/23 Q1006 NOSIG

TAF TAF VTSG
Valido dal 01 a 06 ore il 02 a 06 ore UTC


010500Z 0106/0206 22008KT 9999 FEW020
BECMG 0112/0114 00000KT
BECMG 0122/0124 06006KT



MetMap, La meteo Aeronautica in un colpo d'occhio ! - Copyright ORBIFLY Dicembre 2007 - Disclaimer

ORBIFLY MET'MAP TEAM :

Programmazione e sviluppo : Alexandra Zaïnal
Concezione : Baudouin d'Aumeries
Aiuto per la programmazione : Marc-Olivier Méhu
Supporto tecnico e logistico : Manuel Goepfert
Aiuto per la traduzione : Arnaldo La Scala

Contatto : metmap@orbifly.com




FONTI E CREDITI :

   NOAA       Earth
Advisory